sensor_id;sensor_type;location;lat;lon;timestamp;P1;durP1;ratioP1;P2;durP2;ratioP2
68050;SDS011;54839;51.364;7.246;2022-08-04T00:02:41;7.13;;;3.30;;
68050;SDS011;54839;51.364;7.246;2022-08-04T00:05:03;2.80;;;2.23;;
68050;SDS011;54839;51.364;7.246;2022-08-04T00:07:34;2.30;;;1.90;;
68050;SDS011;54839;51.364;7.246;2022-08-04T00:10:05;2.90;;;2.10;;
68050;SDS011;54839;51.364;7.246;2022-08-04T00:12:32;6.30;;;2.80;;
68050;SDS011;54839;51.364;7.246;2022-08-04T00:15:03;4.67;;;2.33;;
68050;SDS011;54839;51.364;7.246;2022-08-04T00:17:37;4.60;;;2.10;;
68050;SDS011;54839;51.364;7.246;2022-08-04T00:20:04;4.93;;;2.27;;
68050;SDS011;54839;51.364;7.246;2022-08-04T00:22:31;6.60;;;2.20;;
68050;SDS011;54839;51.364;7.246;2022-08-04T00:25:00;4.37;;;2.40;;
68050;SDS011;54839;51.364;7.246;2022-08-04T00:27:28;4.77;;;2.13;;
68050;SDS011;54839;51.364;7.246;2022-08-04T00:29:55;6.60;;;2.20;;
68050;SDS011;54839;51.364;7.246;2022-08-04T00:32:21;3.93;;;2.13;;
68050;SDS011;54839;51.364;7.246;2022-08-04T00:34:47;4.70;;;2.03;;
68050;SDS011;54839;51.364;7.246;2022-08-04T00:37:14;4.17;;;2.27;;
68050;SDS011;54839;51.364;7.246;2022-08-04T00:39:41;5.20;;;1.83;;
68050;SDS011;54839;51.364;7.246;2022-08-04T00:50:44;2.20;;;1.80;;
68050;SDS011;54839;51.364;7.246;2022-08-04T01:01:59;3.53;;;2.20;;
68050;SDS011;54839;51.364;7.246;2022-08-04T01:24:26;5.37;;;2.67;;
68050;SDS011;54839;51.364;7.246;2022-08-04T01:30:01;4.10;;;2.40;;
68050;SDS011;54839;51.364;7.246;2022-08-04T01:32:31;4.07;;;2.07;;
68050;SDS011;54839;51.364;7.246;2022-08-04T01:35:07;3.23;;;2.40;;
68050;SDS011;54839;51.364;7.246;2022-08-04T01:37:54;6.90;;;2.93;;
68050;SDS011;54839;51.364;7.246;2022-08-04T01:40:31;6.23;;;2.23;;
68050;SDS011;54839;51.364;7.246;2022-08-04T01:42:59;4.37;;;2.13;;
68050;SDS011;54839;51.364;7.246;2022-08-04T01:45:27;5.23;;;3.37;;
68050;SDS011;54839;51.364;7.246;2022-08-04T01:47:54;4.57;;;2.57;;
68050;SDS011;54839;51.364;7.246;2022-08-04T01:50:21;4.27;;;2.00;;
68050;SDS011;54839;51.364;7.246;2022-08-04T01:52:51;3.90;;;2.80;;
68050;SDS011;54839;51.364;7.246;2022-08-04T01:55:21;5.50;;;3.20;;
68050;SDS011;54839;51.364;7.246;2022-08-04T01:57:52;3.20;;;2.60;;
68050;SDS011;54839;51.364;7.246;2022-08-04T02:00:21;7.60;;;3.33;;
68050;SDS011;54839;51.364;7.246;2022-08-04T02:02:48;3.63;;;2.40;;
68050;SDS011;54839;51.364;7.246;2022-08-04T02:05:16;3.17;;;2.20;;
68050;SDS011;54839;51.364;7.246;2022-08-04T02:07:49;6.57;;;2.10;;
68050;SDS011;54839;51.364;7.246;2022-08-04T02:13:34;4.33;;;2.93;;
68050;SDS011;54839;51.364;7.246;2022-08-04T02:16:15;4.10;;;2.43;;
68050;SDS011;54839;51.364;7.246;2022-08-04T02:18:57;2.60;;;2.10;;
68050;SDS011;54839;51.364;7.246;2022-08-04T02:21:41;7.23;;;2.30;;
68050;SDS011;54839;51.364;7.246;2022-08-04T02:24:12;4.37;;;2.93;;
68050;SDS011;54839;51.364;7.246;2022-08-04T02:26:40;8.50;;;3.10;;
68050;SDS011;54839;51.364;7.246;2022-08-04T02:29:18;6.20;;;2.50;;
68050;SDS011;54839;51.364;7.246;2022-08-04T02:32:04;6.27;;;3.07;;
68050;SDS011;54839;51.364;7.246;2022-08-04T02:34:38;10.67;;;3.17;;
68050;SDS011;54839;51.364;7.246;2022-08-04T02:37:23;10.87;;;2.97;;
68050;SDS011;54839;51.364;7.246;2022-08-04T02:39:51;5.13;;;2.73;;
68050;SDS011;54839;51.364;7.246;2022-08-04T02:42:17;4.43;;;2.37;;
68050;SDS011;54839;51.364;7.246;2022-08-04T02:44:48;5.03;;;3.10;;
68050;SDS011;54839;51.364;7.246;2022-08-04T02:47:16;3.80;;;2.40;;
68050;SDS011;54839;51.364;7.246;2022-08-04T02:49:45;5.80;;;2.97;;
68050;SDS011;54839;51.364;7.246;2022-08-04T02:52:14;4.67;;;2.43;;
68050;SDS011;54839;51.364;7.246;2022-08-04T02:54:42;5.40;;;3.30;;
68050;SDS011;54839;51.364;7.246;2022-08-04T02:57:11;5.67;;;3.40;;
68050;SDS011;54839;51.364;7.246;2022-08-04T03:02:22;6.30;;;2.73;;
68050;SDS011;54839;51.364;7.246;2022-08-04T03:05:02;3.60;;;2.63;;
68050;SDS011;54839;51.364;7.246;2022-08-04T03:19:09;3.47;;;2.50;;
68050;SDS011;54839;51.364;7.246;2022-08-04T03:21:59;5.53;;;2.67;;
68050;SDS011;54839;51.364;7.246;2022-08-04T03:30:24;5.63;;;3.30;;
68050;SDS011;54839;51.364;7.246;2022-08-04T03:36:13;7.80;;;2.73;;
68050;SDS011;54839;51.364;7.246;2022-08-04T04:20:52;7.60;;;3.00;;
68050;SDS011;54839;51.364;7.246;2022-08-04T04:37:33;5.73;;;3.63;;
68050;SDS011;54839;51.364;7.246;2022-08-04T04:40:24;4.80;;;3.30;;
68050;SDS011;54839;51.364;7.246;2022-08-04T04:51:28;8.13;;;3.63;;
68050;SDS011;54839;51.364;7.246;2022-08-04T04:54:12;3.93;;;3.40;;
68050;SDS011;54839;51.364;7.246;2022-08-04T04:59:30;8.27;;;3.50;;
68050;SDS011;54839;51.364;7.246;2022-08-04T05:10:37;5.77;;;3.43;;
68050;SDS011;54839;51.364;7.246;2022-08-04T05:13:27;4.57;;;3.03;;
68050;SDS011;54839;51.364;7.246;2022-08-04T05:16:16;7.50;;;3.30;;
68050;SDS011;54839;51.364;7.246;2022-08-04T05:18:50;6.23;;;3.70;;
68050;SDS011;54839;51.364;7.246;2022-08-04T05:24:08;4.13;;;3.07;;
68050;SDS011;54839;51.364;7.246;2022-08-04T05:26:58;4.83;;;3.17;;
68050;SDS011;54839;51.364;7.246;2022-08-04T05:31:53;4.73;;;4.00;;
68050;SDS011;54839;51.364;7.246;2022-08-04T05:34:23;3.37;;;3.07;;
68050;SDS011;54839;51.364;7.246;2022-08-04T05:36:56;4.30;;;2.80;;
68050;SDS011;54839;51.364;7.246;2022-08-04T05:39:32;3.53;;;3.23;;
68050;SDS011;54839;51.364;7.246;2022-08-04T05:42:03;4.80;;;2.90;;
68050;SDS011;54839;51.364;7.246;2022-08-04T05:44:29;3.13;;;2.83;;
68050;SDS011;54839;51.364;7.246;2022-08-04T05:46:57;3.80;;;3.13;;
68050;SDS011;54839;51.364;7.246;2022-08-04T05:49:25;3.50;;;3.20;;
68050;SDS011;54839;51.364;7.246;2022-08-04T05:51:52;5.50;;;5.10;;
68050;SDS011;54839;51.364;7.246;2022-08-04T05:54:21;10.87;;;5.23;;
68050;SDS011;54839;51.364;7.246;2022-08-04T05:56:48;4.33;;;3.93;;
68050;SDS011;54839;51.364;7.246;2022-08-04T05:59:15;3.03;;;2.83;;
68050;SDS011;54839;51.364;7.246;2022-08-04T06:01:43;5.60;;;2.87;;
68050;SDS011;54839;51.364;7.246;2022-08-04T06:04:11;4.10;;;3.40;;
68050;SDS011;54839;51.364;7.246;2022-08-04T06:06:37;3.80;;;3.50;;
68050;SDS011;54839;51.364;7.246;2022-08-04T06:09:04;3.17;;;2.87;;
68050;SDS011;54839;51.364;7.246;2022-08-04T06:11:29;2.57;;;2.37;;
68050;SDS011;54839;51.364;7.246;2022-08-04T06:13:57;3.93;;;2.77;;
68050;SDS011;54839;51.364;7.246;2022-08-04T06:16:28;4.53;;;3.50;;
68050;SDS011;54839;51.364;7.246;2022-08-04T06:19:06;3.60;;;2.97;;
68050;SDS011;54839;51.364;7.246;2022-08-04T06:21:34;2.80;;;2.60;;
68050;SDS011;54839;51.364;7.246;2022-08-04T06:24:03;2.83;;;2.53;;
68050;SDS011;54839;51.364;7.246;2022-08-04T06:26:34;3.00;;;2.50;;
68050;SDS011;54839;51.364;7.246;2022-08-04T06:29:00;6.07;;;3.47;;
68050;SDS011;54839;51.364;7.246;2022-08-04T06:31:28;4.23;;;2.57;;
68050;SDS011;54839;51.364;7.246;2022-08-04T06:34:07;4.30;;;3.03;;
68050;SDS011;54839;51.364;7.246;2022-08-04T06:36:35;4.80;;;2.87;;
68050;SDS011;54839;51.364;7.246;2022-08-04T06:39:04;3.53;;;2.83;;
68050;SDS011;54839;51.364;7.246;2022-08-04T06:41:31;2.60;;;2.50;;
68050;SDS011;54839;51.364;7.246;2022-08-04T06:44:05;3.00;;;2.73;;
68050;SDS011;54839;51.364;7.246;2022-08-04T06:46:36;7.90;;;2.87;;
68050;SDS011;54839;51.364;7.246;2022-08-04T06:49:04;3.13;;;2.77;;
68050;SDS011;54839;51.364;7.246;2022-08-04T06:51:30;5.13;;;2.43;;
68050;SDS011;54839;51.364;7.246;2022-08-04T06:53:58;5.27;;;2.63;;
68050;SDS011;54839;51.364;7.246;2022-08-04T06:56:24;4.40;;;3.00;;
68050;SDS011;54839;51.364;7.246;2022-08-04T06:58:51;2.87;;;2.67;;
68050;SDS011;54839;51.364;7.246;2022-08-04T07:01:18;2.63;;;2.33;;
68050;SDS011;54839;51.364;7.246;2022-08-04T07:03:45;3.87;;;3.33;;
68050;SDS011;54839;51.364;7.246;2022-08-04T07:06:11;3.23;;;2.53;;
68050;SDS011;54839;51.364;7.246;2022-08-04T07:08:38;9.30;;;6.13;;
68050;SDS011;54839;51.364;7.246;2022-08-04T07:11:05;3.03;;;2.83;;
68050;SDS011;54839;51.364;7.246;2022-08-04T07:13:31;3.83;;;3.17;;
68050;SDS011;54839;51.364;7.246;2022-08-04T07:15:57;4.93;;;4.47;;
68050;SDS011;54839;51.364;7.246;2022-08-04T07:18:24;4.23;;;3.83;;
68050;SDS011;54839;51.364;7.246;2022-08-04T07:20:49;4.20;;;3.10;;
68050;SDS011;54839;51.364;7.246;2022-08-04T07:23:17;8.10;;;6.47;;
68050;SDS011;54839;51.364;7.246;2022-08-04T07:25:48;5.53;;;5.13;;
68050;SDS011;54839;51.364;7.246;2022-08-04T07:28:20;4.17;;;3.77;;
68050;SDS011;54839;51.364;7.246;2022-08-04T07:30:47;5.83;;;3.47;;
68050;SDS011;54839;51.364;7.246;2022-08-04T07:33:16;3.77;;;3.47;;
68050;SDS011;54839;51.364;7.246;2022-08-04T07:35:43;2.67;;;2.57;;
68050;SDS011;54839;51.364;7.246;2022-08-04T07:38:14;8.33;;;2.73;;
68050;SDS011;54839;51.364;7.246;2022-08-04T07:40:40;2.80;;;2.60;;
68050;SDS011;54839;51.364;7.246;2022-08-04T07:43:06;3.57;;;3.10;;
68050;SDS011;54839;51.364;7.246;2022-08-04T07:45:33;4.37;;;3.10;;
68050;SDS011;54839;51.364;7.246;2022-08-04T07:47:59;3.97;;;2.40;;
68050;SDS011;54839;51.364;7.246;2022-08-04T07:50:25;3.47;;;2.93;;
68050;SDS011;54839;51.364;7.246;2022-08-04T07:52:52;3.70;;;2.40;;
68050;SDS011;54839;51.364;7.246;2022-08-04T07:55:18;4.23;;;3.00;;
68050;SDS011;54839;51.364;7.246;2022-08-04T07:57:45;3.37;;;3.07;;
68050;SDS011;54839;51.364;7.246;2022-08-04T08:00:11;3.67;;;2.80;;
68050;SDS011;54839;51.364;7.246;2022-08-04T08:02:44;2.60;;;2.40;;
68050;SDS011;54839;51.364;7.246;2022-08-04T08:05:13;2.87;;;2.67;;
68050;SDS011;54839;51.364;7.246;2022-08-04T08:07:44;2.50;;;1.97;;
68050;SDS011;54839;51.364;7.246;2022-08-04T08:10:11;3.40;;;2.37;;
68050;SDS011;54839;51.364;7.246;2022-08-04T08:12:38;3.33;;;2.20;;
68050;SDS011;54839;51.364;7.246;2022-08-04T08:15:04;5.43;;;2.33;;
68050;SDS011;54839;51.364;7.246;2022-08-04T08:17:32;2.50;;;2.30;;
68050;SDS011;54839;51.364;7.246;2022-08-04T08:19:58;3.77;;;2.47;;
68050;SDS011;54839;51.364;7.246;2022-08-04T08:22:24;2.60;;;2.40;;
68050;SDS011;54839;51.364;7.246;2022-08-04T08:24:50;5.10;;;3.17;;
68050;SDS011;54839;51.364;7.246;2022-08-04T08:27:16;1.87;;;1.67;;
68050;SDS011;54839;51.364;7.246;2022-08-04T08:29:41;3.33;;;2.87;;
68050;SDS011;54839;51.364;7.246;2022-08-04T08:32:09;3.83;;;2.60;;
68050;SDS011;54839;51.364;7.246;2022-08-04T08:34:38;2.87;;;2.10;;
68050;SDS011;54839;51.364;7.246;2022-08-04T08:39:53;2.90;;;2.33;;
68050;SDS011;54839;51.364;7.246;2022-08-04T08:42:30;3.93;;;2.60;;
68050;SDS011;54839;51.364;7.246;2022-08-04T08:51:01;4.87;;;2.87;;
68050;SDS011;54839;51.364;7.246;2022-08-04T08:54:07;2.73;;;2.40;;
68050;SDS011;54839;51.364;7.246;2022-08-04T09:00:08;2.30;;;2.10;;
68050;SDS011;54839;51.364;7.246;2022-08-04T09:02:51;2.10;;;1.87;;
68050;SDS011;54839;51.364;7.246;2022-08-04T09:08:06;4.50;;;2.30;;
68050;SDS011;54839;51.364;7.246;2022-08-04T09:11:01;2.83;;;2.20;;
68050;SDS011;54839;51.364;7.246;2022-08-04T09:13:33;4.50;;;3.07;;
68050;SDS011;54839;51.364;7.246;2022-08-04T09:21:51;4.10;;;1.73;;
68050;SDS011;54839;51.364;7.246;2022-08-04T09:29:26;3.73;;;2.30;;
68050;SDS011;54839;51.364;7.246;2022-08-04T09:34:42;3.83;;;2.07;;
68050;SDS011;54839;51.364;7.246;2022-08-04T09:42:56;2.50;;;2.10;;
68050;SDS011;54839;51.364;7.246;2022-08-04T09:45:51;2.83;;;1.77;;
68050;SDS011;54839;51.364;7.246;2022-08-04T09:51:33;4.50;;;2.37;;
68050;SDS011;54839;51.364;7.246;2022-08-04T09:57:03;3.13;;;1.87;;
68050;SDS011;54839;51.364;7.246;2022-08-04T09:59:42;4.27;;;1.97;;
68050;SDS011;54839;51.364;7.246;2022-08-04T10:02:23;1.63;;;1.40;;
68050;SDS011;54839;51.364;7.246;2022-08-04T10:04:49;7.00;;;1.87;;
68050;SDS011;54839;51.364;7.246;2022-08-04T10:07:28;4.00;;;1.63;;
68050;SDS011;54839;51.364;7.246;2022-08-04T10:13:07;5.37;;;1.90;;
68050;SDS011;54839;51.364;7.246;2022-08-04T10:21:25;2.00;;;1.60;;
68050;SDS011;54839;51.364;7.246;2022-08-04T10:24:55;2.50;;;1.43;;
68050;SDS011;54839;51.364;7.246;2022-08-04T10:27:27;2.87;;;2.00;;
68050;SDS011;54839;51.364;7.246;2022-08-04T10:30:05;4.47;;;2.27;;
68050;SDS011;54839;51.364;7.246;2022-08-04T10:35:18;1.57;;;1.47;;
68050;SDS011;54839;51.364;7.246;2022-08-04T10:40:55;2.07;;;1.50;;
68050;SDS011;54839;51.364;7.246;2022-08-04T10:43:26;3.27;;;1.50;;
68050;SDS011;54839;51.364;7.246;2022-08-04T10:49:09;3.00;;;1.70;;
68050;SDS011;54839;51.364;7.246;2022-08-04T10:52:04;3.97;;;1.43;;
68050;SDS011;54839;51.364;7.246;2022-08-04T10:54:40;2.27;;;2.07;;
68050;SDS011;54839;51.364;7.246;2022-08-04T10:57:14;2.37;;;1.50;;
68050;SDS011;54839;51.364;7.246;2022-08-04T11:02:19;4.40;;;2.47;;
68050;SDS011;54839;51.364;7.246;2022-08-04T11:07:43;4.80;;;1.80;;
68050;SDS011;54839;51.364;7.246;2022-08-04T11:10:11;4.47;;;1.80;;
68050;SDS011;54839;51.364;7.246;2022-08-04T11:12:38;4.67;;;1.70;;
68050;SDS011;54839;51.364;7.246;2022-08-04T11:15:08;4.70;;;1.90;;
68050;SDS011;54839;51.364;7.246;2022-08-04T11:17:39;3.33;;;2.10;;
68050;SDS011;54839;51.364;7.246;2022-08-04T11:20:15;4.10;;;1.70;;
68050;SDS011;54839;51.364;7.246;2022-08-04T11:22:49;4.10;;;2.03;;
68050;SDS011;54839;51.364;7.246;2022-08-04T11:25:23;10.80;;;1.90;;
68050;SDS011;54839;51.364;7.246;2022-08-04T11:30:56;5.20;;;2.30;;
68050;SDS011;54839;51.364;7.246;2022-08-04T11:33:34;4.23;;;2.50;;
68050;SDS011;54839;51.364;7.246;2022-08-04T11:36:21;5.10;;;2.30;;
68050;SDS011;54839;51.364;7.246;2022-08-04T11:44:11;6.87;;;2.50;;
68050;SDS011;54839;51.364;7.246;2022-08-04T11:46:47;5.40;;;2.20;;
68050;SDS011;54839;51.364;7.246;2022-08-04T11:49:27;6.40;;;2.70;;
68050;SDS011;54839;51.364;7.246;2022-08-04T11:51:54;3.63;;;2.50;;
68050;SDS011;54839;51.364;7.246;2022-08-04T11:54:22;2.60;;;2.03;;
68050;SDS011;54839;51.364;7.246;2022-08-04T11:56:48;4.03;;;2.43;;
68050;SDS011;54839;51.364;7.246;2022-08-04T11:59:14;7.07;;;2.10;;
68050;SDS011;54839;51.364;7.246;2022-08-04T12:04:56;3.30;;;2.30;;
68050;SDS011;54839;51.364;7.246;2022-08-04T12:19:02;7.30;;;2.57;;
68050;SDS011;54839;51.364;7.246;2022-08-04T12:21:34;6.23;;;2.70;;
68050;SDS011;54839;51.364;7.246;2022-08-04T12:27:19;2.80;;;2.03;;
68050;SDS011;54839;51.364;7.246;2022-08-04T12:29:48;6.10;;;2.40;;
68050;SDS011;54839;51.364;7.246;2022-08-04T12:33:01;7.60;;;2.60;;
68050;SDS011;54839;51.364;7.246;2022-08-04T12:35:39;5.47;;;2.90;;
68050;SDS011;54839;51.364;7.246;2022-08-04T12:38:15;6.33;;;2.73;;
68050;SDS011;54839;51.364;7.246;2022-08-04T12:40:49;2.90;;;2.70;;
68050;SDS011;54839;51.364;7.246;2022-08-04T12:43:25;5.03;;;2.50;;
68050;SDS011;54839;51.364;7.246;2022-08-04T12:46:09;5.60;;;3.07;;
68050;SDS011;54839;51.364;7.246;2022-08-04T12:48:43;5.73;;;2.63;;
68050;SDS011;54839;51.364;7.246;2022-08-04T12:51:11;3.57;;;2.90;;
68050;SDS011;54839;51.364;7.246;2022-08-04T12:53:41;5.23;;;2.83;;
68050;SDS011;54839;51.364;7.246;2022-08-04T12:56:08;2.70;;;2.30;;
68050;SDS011;54839;51.364;7.246;2022-08-04T12:58:42;7.67;;;2.77;;
68050;SDS011;54839;51.364;7.246;2022-08-04T13:01:19;8.50;;;2.67;;
68050;SDS011;54839;51.364;7.246;2022-08-04T13:04:32;4.50;;;2.13;;
68050;SDS011;54839;51.364;7.246;2022-08-04T13:06:37;2.70;;;1.77;;
68050;SDS011;54839;51.364;7.246;2022-08-04T13:09:15;7.47;;;2.63;;
68050;SDS011;54839;51.364;7.246;2022-08-04T13:11:48;5.13;;;2.87;;
68050;SDS011;54839;51.364;7.246;2022-08-04T13:14:20;5.93;;;2.73;;
68050;SDS011;54839;51.364;7.246;2022-08-04T13:16:55;12.37;;;3.50;;
68050;SDS011;54839;51.364;7.246;2022-08-04T13:19:23;4.47;;;2.30;;
68050;SDS011;54839;51.364;7.246;2022-08-04T13:21:49;4.03;;;2.20;;
68050;SDS011;54839;51.364;7.246;2022-08-04T13:24:17;2.90;;;2.03;;
68050;SDS011;54839;51.364;7.246;2022-08-04T13:26:50;7.73;;;2.20;;
68050;SDS011;54839;51.364;7.246;2022-08-04T13:29:36;4.60;;;2.90;;
68050;SDS011;54839;51.364;7.246;2022-08-04T13:32:07;4.53;;;2.67;;
68050;SDS011;54839;51.364;7.246;2022-08-04T13:34:34;5.63;;;2.70;;
68050;SDS011;54839;51.364;7.246;2022-08-04T13:37:01;6.43;;;2.70;;
68050;SDS011;54839;51.364;7.246;2022-08-04T13:39:28;3.30;;;2.57;;
68050;SDS011;54839;51.364;7.246;2022-08-04T13:41:57;3.53;;;2.10;;
68050;SDS011;54839;51.364;7.246;2022-08-04T13:44:30;7.33;;;2.87;;
68050;SDS011;54839;51.364;7.246;2022-08-04T13:47:09;4.83;;;2.70;;
68050;SDS011;54839;51.364;7.246;2022-08-04T13:49:38;4.73;;;2.73;;
68050;SDS011;54839;51.364;7.246;2022-08-04T13:52:04;6.33;;;3.10;;
68050;SDS011;54839;51.364;7.246;2022-08-04T13:54:43;6.20;;;3.90;;
68050;SDS011;54839;51.364;7.246;2022-08-04T13:57:29;8.43;;;3.07;;
68050;SDS011;54839;51.364;7.246;2022-08-04T13:59:59;4.43;;;2.90;;
68050;SDS011;54839;51.364;7.246;2022-08-04T14:02:39;5.90;;;3.13;;
68050;SDS011;54839;51.364;7.246;2022-08-04T14:05:16;2.53;;;2.33;;
68050;SDS011;54839;51.364;7.246;2022-08-04T14:07:50;3.20;;;2.60;;
68050;SDS011;54839;51.364;7.246;2022-08-04T14:10:22;8.40;;;2.90;;
68050;SDS011;54839;51.364;7.246;2022-08-04T14:12:48;4.57;;;2.60;;
68050;SDS011;54839;51.364;7.246;2022-08-04T14:15:32;5.37;;;2.90;;
68050;SDS011;54839;51.364;7.246;2022-08-04T14:21:02;3.80;;;2.87;;
68050;SDS011;54839;51.364;7.246;2022-08-04T14:24:06;5.80;;;3.17;;
68050;SDS011;54839;51.364;7.246;2022-08-04T14:26:25;8.67;;;3.33;;
68050;SDS011;54839;51.364;7.246;2022-08-04T14:28:54;3.70;;;3.10;;
68050;SDS011;54839;51.364;7.246;2022-08-04T14:31:24;8.97;;;3.53;;
68050;SDS011;54839;51.364;7.246;2022-08-04T14:33:51;7.80;;;3.50;;
68050;SDS011;54839;51.364;7.246;2022-08-04T14:36:18;3.83;;;2.53;;
68050;SDS011;54839;51.364;7.246;2022-08-04T14:38:51;5.60;;;3.20;;
68050;SDS011;54839;51.364;7.246;2022-08-04T14:41:19;4.57;;;2.80;;
68050;SDS011;54839;51.364;7.246;2022-08-04T14:43:53;23.07;;;4.13;;
68050;SDS011;54839;51.364;7.246;2022-08-04T14:46:20;10.00;;;3.67;;
68050;SDS011;54839;51.364;7.246;2022-08-04T14:51:37;5.67;;;3.30;;
68050;SDS011;54839;51.364;7.246;2022-08-04T14:54:08;9.13;;;3.20;;
68050;SDS011;54839;51.364;7.246;2022-08-04T14:56:35;8.73;;;3.27;;
68050;SDS011;54839;51.364;7.246;2022-08-04T14:59:04;7.80;;;3.53;;
68050;SDS011;54839;51.364;7.246;2022-08-04T15:01:35;6.57;;;3.00;;
68050;SDS011;54839;51.364;7.246;2022-08-04T15:04:03;10.97;;;3.50;;
68050;SDS011;54839;51.364;7.246;2022-08-04T15:06:30;10.00;;;4.20;;
68050;SDS011;54839;51.364;7.246;2022-08-04T15:08:58;4.93;;;2.73;;
68050;SDS011;54839;51.364;7.246;2022-08-04T15:11:26;7.40;;;3.47;;
68050;SDS011;54839;51.364;7.246;2022-08-04T15:13:53;7.53;;;2.60;;
68050;SDS011;54839;51.364;7.246;2022-08-04T15:16:20;7.50;;;3.50;;
68050;SDS011;54839;51.364;7.246;2022-08-04T15:18:47;6.10;;;2.63;;
68050;SDS011;54839;51.364;7.246;2022-08-04T15:21:13;6.93;;;3.03;;
68050;SDS011;54839;51.364;7.246;2022-08-04T15:23:39;5.93;;;2.67;;
68050;SDS011;54839;51.364;7.246;2022-08-04T15:26:07;8.00;;;2.90;;
68050;SDS011;54839;51.364;7.246;2022-08-04T15:28:37;4.00;;;3.17;;
68050;SDS011;54839;51.364;7.246;2022-08-04T15:31:05;6.70;;;3.47;;
68050;SDS011;54839;51.364;7.246;2022-08-04T15:33:33;4.00;;;2.80;;
68050;SDS011;54839;51.364;7.246;2022-08-04T15:36:11;6.77;;;2.77;;
68050;SDS011;54839;51.364;7.246;2022-08-04T15:38:43;4.30;;;2.97;;
68050;SDS011;54839;51.364;7.246;2022-08-04T15:41:23;3.23;;;2.90;;
68050;SDS011;54839;51.364;7.246;2022-08-04T15:47:06;5.50;;;3.30;;
68050;SDS011;54839;51.364;7.246;2022-08-04T15:49:26;3.20;;;3.00;;
68050;SDS011;54839;51.364;7.246;2022-08-04T15:52:02;5.30;;;2.70;;
68050;SDS011;54839;51.364;7.246;2022-08-04T15:54:29;6.23;;;3.33;;
68050;SDS011;54839;51.364;7.246;2022-08-04T15:56:55;8.50;;;2.90;;
68050;SDS011;54839;51.364;7.246;2022-08-04T16:10:42;7.70;;;3.33;;
68050;SDS011;54839;51.364;7.246;2022-08-04T16:13:10;8.47;;;4.20;;
68050;SDS011;54839;51.364;7.246;2022-08-04T16:15:45;10.07;;;5.10;;
68050;SDS011;54839;51.364;7.246;2022-08-04T16:18:11;18.40;;;7.93;;
68050;SDS011;54839;51.364;7.246;2022-08-04T16:20:46;18.00;;;9.63;;
68050;SDS011;54839;51.364;7.246;2022-08-04T16:25:58;27.77;;;11.50;;
68050;SDS011;54839;51.364;7.246;2022-08-04T16:31:04;30.73;;;9.40;;
68050;SDS011;54839;51.364;7.246;2022-08-04T16:33:32;18.97;;;8.87;;
68050;SDS011;54839;51.364;7.246;2022-08-04T16:35:58;17.73;;;7.43;;
68050;SDS011;54839;51.364;7.246;2022-08-04T16:38:27;12.23;;;4.93;;
68050;SDS011;54839;51.364;7.246;2022-08-04T16:40:54;11.60;;;5.33;;
68050;SDS011;54839;51.364;7.246;2022-08-04T16:43:21;8.73;;;4.03;;
68050;SDS011;54839;51.364;7.246;2022-08-04T16:45:52;11.57;;;4.73;;
68050;SDS011;54839;51.364;7.246;2022-08-04T16:48:26;8.03;;;4.57;;
68050;SDS011;54839;51.364;7.246;2022-08-04T16:53:21;6.53;;;3.17;;
68050;SDS011;54839;51.364;7.246;2022-08-04T16:55:50;4.83;;;2.93;;
68050;SDS011;54839;51.364;7.246;2022-08-04T16:58:23;5.87;;;3.17;;
68050;SDS011;54839;51.364;7.246;2022-08-04T17:00:50;5.40;;;3.30;;
68050;SDS011;54839;51.364;7.246;2022-08-04T17:03:16;3.80;;;2.33;;
68050;SDS011;54839;51.364;7.246;2022-08-04T17:05:42;8.00;;;3.50;;
68050;SDS011;54839;51.364;7.246;2022-08-04T17:08:09;4.37;;;3.97;;
68050;SDS011;54839;51.364;7.246;2022-08-04T17:10:39;5.07;;;3.07;;
68050;SDS011;54839;51.364;7.246;2022-08-04T17:13:25;4.13;;;3.00;;
68050;SDS011;54839;51.364;7.246;2022-08-04T17:16:00;3.20;;;3.00;;
68050;SDS011;54839;51.364;7.246;2022-08-04T17:18:32;7.37;;;3.67;;
68050;SDS011;54839;51.364;7.246;2022-08-04T17:21:01;5.90;;;3.83;;
68050;SDS011;54839;51.364;7.246;2022-08-04T17:23:31;6.63;;;2.67;;
68050;SDS011;54839;51.364;7.246;2022-08-04T17:26:18;6.33;;;3.30;;
68050;SDS011;54839;51.364;7.246;2022-08-04T17:29:00;4.33;;;3.70;;
68050;SDS011;54839;51.364;7.246;2022-08-04T17:31:27;4.47;;;3.10;;
68050;SDS011;54839;51.364;7.246;2022-08-04T17:33:54;8.10;;;3.40;;
68050;SDS011;54839;51.364;7.246;2022-08-04T17:36:22;5.77;;;3.47;;
68050;SDS011;54839;51.364;7.246;2022-08-04T17:38:50;3.83;;;2.70;;
68050;SDS011;54839;51.364;7.246;2022-08-04T17:41:21;5.40;;;3.47;;
68050;SDS011;54839;51.364;7.246;2022-08-04T17:48:43;5.67;;;3.93;;
68050;SDS011;54839;51.364;7.246;2022-08-04T17:51:16;3.13;;;2.83;;
68050;SDS011;54839;51.364;7.246;2022-08-04T17:53:42;5.43;;;3.60;;
68050;SDS011;54839;51.364;7.246;2022-08-04T17:56:50;5.27;;;3.93;;
68050;SDS011;54839;51.364;7.246;2022-08-04T17:59:18;5.30;;;2.63;;
68050;SDS011;54839;51.364;7.246;2022-08-04T18:01:54;6.20;;;3.77;;
68050;SDS011;54839;51.364;7.246;2022-08-04T18:04:26;4.90;;;2.73;;
68050;SDS011;54839;51.364;7.246;2022-08-04T18:06:55;7.03;;;3.50;;
68050;SDS011;54839;51.364;7.246;2022-08-04T18:09:29;4.40;;;2.90;;
68050;SDS011;54839;51.364;7.246;2022-08-04T18:11:57;7.70;;;3.17;;
68050;SDS011;54839;51.364;7.246;2022-08-04T18:14:25;6.20;;;5.40;;
68050;SDS011;54839;51.364;7.246;2022-08-04T18:17:02;7.10;;;4.13;;
68050;SDS011;54839;51.364;7.246;2022-08-04T18:19:28;7.17;;;3.40;;
68050;SDS011;54839;51.364;7.246;2022-08-04T18:21:54;10.60;;;3.93;;
68050;SDS011;54839;51.364;7.246;2022-08-04T18:24:19;6.37;;;3.43;;
68050;SDS011;54839;51.364;7.246;2022-08-04T18:26:45;7.13;;;2.80;;
68050;SDS011;54839;51.364;7.246;2022-08-04T18:29:11;4.57;;;3.50;;
68050;SDS011;54839;51.364;7.246;2022-08-04T18:31:36;4.60;;;2.97;;
68050;SDS011;54839;51.364;7.246;2022-08-04T18:34:04;3.70;;;2.90;;
68050;SDS011;54839;51.364;7.246;2022-08-04T18:36:31;4.63;;;3.83;;
68050;SDS011;54839;51.364;7.246;2022-08-04T18:39:00;6.80;;;2.90;;
68050;SDS011;54839;51.364;7.246;2022-08-04T18:41:27;5.70;;;3.60;;
68050;SDS011;54839;51.364;7.246;2022-08-04T18:43:56;5.80;;;4.00;;
68050;SDS011;54839;51.364;7.246;2022-08-04T18:46:21;5.47;;;2.53;;
68050;SDS011;54839;51.364;7.246;2022-08-04T18:48:50;4.63;;;2.73;;
68050;SDS011;54839;51.364;7.246;2022-08-04T18:51:16;8.97;;;3.67;;
68050;SDS011;54839;51.364;7.246;2022-08-04T18:53:45;3.27;;;2.70;;
68050;SDS011;54839;51.364;7.246;2022-08-04T18:56:12;4.30;;;3.90;;
68050;SDS011;54839;51.364;7.246;2022-08-04T18:58:38;5.77;;;3.20;;
68050;SDS011;54839;51.364;7.246;2022-08-04T19:01:04;6.27;;;3.40;;
68050;SDS011;54839;51.364;7.246;2022-08-04T19:03:32;7.47;;;3.03;;
68050;SDS011;54839;51.364;7.246;2022-08-04T19:05:58;5.37;;;2.90;;
68050;SDS011;54839;51.364;7.246;2022-08-04T19:08:26;5.17;;;3.23;;
68050;SDS011;54839;51.364;7.246;2022-08-04T19:10:51;3.40;;;3.07;;
68050;SDS011;54839;51.364;7.246;2022-08-04T19:13:17;6.80;;;3.10;;
68050;SDS011;54839;51.364;7.246;2022-08-04T19:15:43;5.27;;;3.53;;
68050;SDS011;54839;51.364;7.246;2022-08-04T19:18:08;3.47;;;3.17;;
68050;SDS011;54839;51.364;7.246;2022-08-04T19:20:34;7.07;;;4.27;;
68050;SDS011;54839;51.364;7.246;2022-08-04T19:23:00;9.90;;;3.97;;
68050;SDS011;54839;51.364;7.246;2022-08-04T19:25:25;4.60;;;3.40;;
68050;SDS011;54839;51.364;7.246;2022-08-04T19:27:51;4.77;;;3.47;;
68050;SDS011;54839;51.364;7.246;2022-08-04T19:30:16;4.10;;;3.80;;
68050;SDS011;54839;51.364;7.246;2022-08-04T19:32:42;6.23;;;3.50;;
68050;SDS011;54839;51.364;7.246;2022-08-04T19:35:08;6.73;;;3.23;;
68050;SDS011;54839;51.364;7.246;2022-08-04T19:37:34;6.60;;;3.60;;
68050;SDS011;54839;51.364;7.246;2022-08-04T19:39:59;4.70;;;4.20;;
68050;SDS011;54839;51.364;7.246;2022-08-04T19:42:25;4.73;;;3.20;;
68050;SDS011;54839;51.364;7.246;2022-08-04T19:44:51;3.67;;;3.37;;